sensor_id;sensor_type;location;lat;lon;timestamp;P1;durP1;ratioP1;P2;durP2;ratioP2
5682;SDS011;2864;49.220;8.654;2023-02-24T00:01:17;30.93;;;20.87;;
5682;SDS011;2864;49.220;8.654;2023-02-24T00:03:49;33.00;;;20.80;;
5682;SDS011;2864;49.220;8.654;2023-02-24T00:06:27;33.80;;;20.83;;
5682;SDS011;2864;49.220;8.654;2023-02-24T00:09:04;34.90;;;21.37;;
5682;SDS011;2864;49.220;8.654;2023-02-24T00:11:32;35.43;;;21.23;;
5682;SDS011;2864;49.220;8.654;2023-02-24T00:13:58;35.03;;;20.73;;
5682;SDS011;2864;49.220;8.654;2023-02-24T00:16:24;37.70;;;21.90;;
5682;SDS011;2864;49.220;8.654;2023-02-24T00:18:51;34.07;;;22.43;;
5682;SDS011;2864;49.220;8.654;2023-02-24T00:21:17;35.73;;;22.57;;
5682;SDS011;2864;49.220;8.654;2023-02-24T00:23:44;33.37;;;20.67;;
5682;SDS011;2864;49.220;8.654;2023-02-24T00:26:11;36.43;;;21.77;;
5682;SDS011;2864;49.220;8.654;2023-02-24T00:28:37;33.10;;;21.63;;
5682;SDS011;2864;49.220;8.654;2023-02-24T00:31:07;34.73;;;21.47;;
5682;SDS011;2864;49.220;8.654;2023-02-24T00:33:40;37.97;;;21.80;;
5682;SDS011;2864;49.220;8.654;2023-02-24T00:36:11;35.40;;;21.10;;
5682;SDS011;2864;49.220;8.654;2023-02-24T00:38:38;35.87;;;21.80;;
5682;SDS011;2864;49.220;8.654;2023-02-24T00:41:08;36.80;;;21.43;;
5682;SDS011;2864;49.220;8.654;2023-02-24T00:43:46;38.63;;;22.07;;
5682;SDS011;2864;49.220;8.654;2023-02-24T00:46:14;38.33;;;22.40;;
5682;SDS011;2864;49.220;8.654;2023-02-24T00:48:41;34.77;;;21.30;;
5682;SDS011;2864;49.220;8.654;2023-02-24T00:51:10;37.50;;;21.93;;
5682;SDS011;2864;49.220;8.654;2023-02-24T00:53:39;40.13;;;21.10;;
5682;SDS011;2864;49.220;8.654;2023-02-24T00:56:05;37.93;;;21.13;;
5682;SDS011;2864;49.220;8.654;2023-02-24T00:58:35;38.13;;;22.77;;
5682;SDS011;2864;49.220;8.654;2023-02-24T01:01:01;39.10;;;21.90;;
5682;SDS011;2864;49.220;8.654;2023-02-24T01:03:29;40.93;;;22.13;;
5682;SDS011;2864;49.220;8.654;2023-02-24T01:05:59;40.47;;;22.37;;
5682;SDS011;2864;49.220;8.654;2023-02-24T01:08:27;34.60;;;19.60;;
5682;SDS011;2864;49.220;8.654;2023-02-24T01:10:59;35.37;;;21.70;;
5682;SDS011;2864;49.220;8.654;2023-02-24T01:13:44;40.77;;;23.70;;
5682;SDS011;2864;49.220;8.654;2023-02-24T01:16:10;39.87;;;22.93;;
5682;SDS011;2864;49.220;8.654;2023-02-24T01:18:46;43.33;;;23.00;;
5682;SDS011;2864;49.220;8.654;2023-02-24T01:21:15;42.50;;;22.70;;
5682;SDS011;2864;49.220;8.654;2023-02-24T01:23:42;43.07;;;23.77;;
5682;SDS011;2864;49.220;8.654;2023-02-24T01:26:12;43.47;;;23.17;;
5682;SDS011;2864;49.220;8.654;2023-02-24T01:28:38;40.23;;;22.07;;
5682;SDS011;2864;49.220;8.654;2023-02-24T01:31:04;43.00;;;23.23;;
5682;SDS011;2864;49.220;8.654;2023-02-24T01:33:31;42.57;;;22.90;;
5682;SDS011;2864;49.220;8.654;2023-02-24T01:36:10;42.40;;;22.63;;
5682;SDS011;2864;49.220;8.654;2023-02-24T01:38:36;40.03;;;22.77;;
5682;SDS011;2864;49.220;8.654;2023-02-24T01:41:03;45.00;;;22.80;;
5682;SDS011;2864;49.220;8.654;2023-02-24T01:43:33;43.57;;;22.90;;
5682;SDS011;2864;49.220;8.654;2023-02-24T01:45:59;43.00;;;22.40;;
5682;SDS011;2864;49.220;8.654;2023-02-24T01:48:25;43.53;;;22.23;;
5682;SDS011;2864;49.220;8.654;2023-02-24T01:50:52;44.40;;;23.30;;
5682;SDS011;2864;49.220;8.654;2023-02-24T01:53:18;44.70;;;23.90;;
5682;SDS011;2864;49.220;8.654;2023-02-24T01:55:45;50.43;;;23.37;;
5682;SDS011;2864;49.220;8.654;2023-02-24T01:58:25;45.47;;;23.43;;
5682;SDS011;2864;49.220;8.654;2023-02-24T02:00:51;54.10;;;24.17;;
5682;SDS011;2864;49.220;8.654;2023-02-24T02:03:22;46.50;;;23.60;;
5682;SDS011;2864;49.220;8.654;2023-02-24T02:06:05;45.70;;;23.63;;
5682;SDS011;2864;49.220;8.654;2023-02-24T02:08:37;51.70;;;24.50;;
5682;SDS011;2864;49.220;8.654;2023-02-24T02:11:08;48.70;;;24.20;;
5682;SDS011;2864;49.220;8.654;2023-02-24T02:13:37;54.73;;;24.70;;
5682;SDS011;2864;49.220;8.654;2023-02-24T02:16:15;48.63;;;24.37;;
5682;SDS011;2864;49.220;8.654;2023-02-24T02:18:53;50.33;;;24.73;;
5682;SDS011;2864;49.220;8.654;2023-02-24T02:22:06;52.77;;;23.90;;
5682;SDS011;2864;49.220;8.654;2023-02-24T02:34:55;53.37;;;24.63;;
5682;SDS011;2864;49.220;8.654;2023-02-24T02:37:40;48.73;;;24.30;;
5682;SDS011;2864;49.220;8.654;2023-02-24T02:40:22;49.83;;;24.90;;
5682;SDS011;2864;49.220;8.654;2023-02-24T02:45:39;50.33;;;23.67;;
5682;SDS011;2864;49.220;8.654;2023-02-24T02:48:25;49.27;;;23.77;;
5682;SDS011;2864;49.220;8.654;2023-02-24T02:50:58;53.27;;;24.30;;
5682;SDS011;2864;49.220;8.654;2023-02-24T02:53:38;54.83;;;24.60;;
5682;SDS011;2864;49.220;8.654;2023-02-24T02:56:14;47.20;;;22.83;;
5682;SDS011;2864;49.220;8.654;2023-02-24T02:58:57;50.27;;;23.20;;
5682;SDS011;2864;49.220;8.654;2023-02-24T03:01:30;48.13;;;23.27;;
5682;SDS011;2864;49.220;8.654;2023-02-24T03:04:03;53.67;;;24.07;;
5682;SDS011;2864;49.220;8.654;2023-02-24T03:06:34;52.93;;;24.03;;
5682;SDS011;2864;49.220;8.654;2023-02-24T03:09:09;53.83;;;23.10;;
5682;SDS011;2864;49.220;8.654;2023-02-24T03:11:43;50.77;;;24.40;;
5682;SDS011;2864;49.220;8.654;2023-02-24T03:14:13;52.07;;;23.83;;
5682;SDS011;2864;49.220;8.654;2023-02-24T03:16:41;45.70;;;22.47;;
5682;SDS011;2864;49.220;8.654;2023-02-24T03:19:10;47.70;;;24.37;;
5682;SDS011;2864;49.220;8.654;2023-02-24T03:21:47;49.03;;;22.50;;
5682;SDS011;2864;49.220;8.654;2023-02-24T03:24:15;47.67;;;22.77;;
5682;SDS011;2864;49.220;8.654;2023-02-24T03:26:46;53.77;;;23.47;;
5682;SDS011;2864;49.220;8.654;2023-02-24T03:31:50;47.63;;;22.33;;
5682;SDS011;2864;49.220;8.654;2023-02-24T03:34:21;46.33;;;21.90;;
5682;SDS011;2864;49.220;8.654;2023-02-24T03:36:49;51.10;;;23.50;;
5682;SDS011;2864;49.220;8.654;2023-02-24T03:39:18;50.50;;;23.90;;
5682;SDS011;2864;49.220;8.654;2023-02-24T03:41:52;45.93;;;22.07;;
5682;SDS011;2864;49.220;8.654;2023-02-24T03:44:21;53.57;;;24.47;;
5682;SDS011;2864;49.220;8.654;2023-02-24T03:46:48;45.63;;;22.53;;
5682;SDS011;2864;49.220;8.654;2023-02-24T03:49:14;54.50;;;24.00;;
5682;SDS011;2864;49.220;8.654;2023-02-24T03:51:52;54.40;;;23.03;;
5682;SDS011;2864;49.220;8.654;2023-02-24T04:05:44;41.67;;;20.63;;
5682;SDS011;2864;49.220;8.654;2023-02-24T04:08:16;47.97;;;21.67;;
5682;SDS011;2864;49.220;8.654;2023-02-24T04:15:54;47.00;;;21.10;;
5682;SDS011;2864;49.220;8.654;2023-02-24T04:18:25;56.73;;;22.00;;
5682;SDS011;2864;49.220;8.654;2023-02-24T04:20:53;50.70;;;21.07;;
5682;SDS011;2864;49.220;8.654;2023-02-24T04:23:37;49.47;;;21.80;;
5682;SDS011;2864;49.220;8.654;2023-02-24T04:26:03;49.87;;;22.30;;
5682;SDS011;2864;49.220;8.654;2023-02-24T04:28:30;49.47;;;23.73;;
5682;SDS011;2864;49.220;8.654;2023-02-24T04:30:59;58.67;;;26.73;;
5682;SDS011;2864;49.220;8.654;2023-02-24T04:33:30;56.47;;;24.00;;
5682;SDS011;2864;49.220;8.654;2023-02-24T04:35:56;59.43;;;25.23;;
5682;SDS011;2864;49.220;8.654;2023-02-24T04:38:22;61.60;;;25.67;;
5682;SDS011;2864;49.220;8.654;2023-02-24T04:40:48;56.67;;;24.93;;
5682;SDS011;2864;49.220;8.654;2023-02-24T04:43:14;61.90;;;26.63;;
5682;SDS011;2864;49.220;8.654;2023-02-24T04:45:41;58.77;;;26.63;;
5682;SDS011;2864;49.220;8.654;2023-02-24T04:48:07;64.10;;;27.27;;
5682;SDS011;2864;49.220;8.654;2023-02-24T04:50:37;66.73;;;27.37;;
5682;SDS011;2864;49.220;8.654;2023-02-24T04:53:05;66.40;;;27.57;;
5682;SDS011;2864;49.220;8.654;2023-02-24T04:55:37;60.57;;;26.37;;
5682;SDS011;2864;49.220;8.654;2023-02-24T04:58:04;62.00;;;26.67;;
5682;SDS011;2864;49.220;8.654;2023-02-24T05:00:31;64.50;;;26.57;;
5682;SDS011;2864;49.220;8.654;2023-02-24T05:03:00;61.47;;;27.03;;
5682;SDS011;2864;49.220;8.654;2023-02-24T05:05:26;61.40;;;26.27;;
5682;SDS011;2864;49.220;8.654;2023-02-24T05:07:57;71.23;;;27.27;;
5682;SDS011;2864;49.220;8.654;2023-02-24T05:10:40;62.80;;;26.67;;
5682;SDS011;2864;49.220;8.654;2023-02-24T05:13:07;62.37;;;24.83;;
5682;SDS011;2864;49.220;8.654;2023-02-24T05:15:37;57.20;;;25.27;;
5682;SDS011;2864;49.220;8.654;2023-02-24T05:18:07;66.20;;;27.43;;
5682;SDS011;2864;49.220;8.654;2023-02-24T05:20:38;60.90;;;26.17;;
5682;SDS011;2864;49.220;8.654;2023-02-24T05:23:26;64.27;;;26.47;;
5682;SDS011;2864;49.220;8.654;2023-02-24T05:25:55;61.27;;;26.47;;
5682;SDS011;2864;49.220;8.654;2023-02-24T05:28:22;59.60;;;26.43;;
5682;SDS011;2864;49.220;8.654;2023-02-24T05:30:51;65.80;;;26.97;;
5682;SDS011;2864;49.220;8.654;2023-02-24T05:33:20;57.97;;;25.53;;
5682;SDS011;2864;49.220;8.654;2023-02-24T05:35:49;63.27;;;26.93;;
5682;SDS011;2864;49.220;8.654;2023-02-24T05:38:15;63.00;;;25.63;;
5682;SDS011;2864;49.220;8.654;2023-02-24T05:40:45;58.63;;;25.37;;
5682;SDS011;2864;49.220;8.654;2023-02-24T05:43:14;64.47;;;26.00;;
5682;SDS011;2864;49.220;8.654;2023-02-24T05:45:44;60.60;;;25.40;;
5682;SDS011;2864;49.220;8.654;2023-02-24T05:48:11;64.90;;;26.20;;
5682;SDS011;2864;49.220;8.654;2023-02-24T05:50:39;63.63;;;25.87;;
5682;SDS011;2864;49.220;8.654;2023-02-24T05:53:05;61.83;;;26.47;;
5682;SDS011;2864;49.220;8.654;2023-02-24T05:55:33;67.93;;;25.90;;
5682;SDS011;2864;49.220;8.654;2023-02-24T05:58:00;58.80;;;25.67;;
5682;SDS011;2864;49.220;8.654;2023-02-24T06:00:30;61.77;;;26.00;;
5682;SDS011;2864;49.220;8.654;2023-02-24T06:02:56;62.30;;;24.53;;
5682;SDS011;2864;49.220;8.654;2023-02-24T06:05:32;62.57;;;25.63;;
5682;SDS011;2864;49.220;8.654;2023-02-24T06:07:59;68.40;;;25.73;;
5682;SDS011;2864;49.220;8.654;2023-02-24T06:10:36;63.90;;;26.43;;
5682;SDS011;2864;49.220;8.654;2023-02-24T06:13:04;61.70;;;25.40;;
5682;SDS011;2864;49.220;8.654;2023-02-24T06:15:30;67.07;;;26.07;;
5682;SDS011;2864;49.220;8.654;2023-02-24T06:17:57;71.13;;;25.80;;
5682;SDS011;2864;49.220;8.654;2023-02-24T06:20:25;64.67;;;26.03;;
5682;SDS011;2864;49.220;8.654;2023-02-24T06:22:52;75.97;;;29.60;;
5682;SDS011;2864;49.220;8.654;2023-02-24T06:25:18;72.83;;;28.13;;
5682;SDS011;2864;49.220;8.654;2023-02-24T06:27:45;71.93;;;28.00;;
5682;SDS011;2864;49.220;8.654;2023-02-24T06:30:17;68.93;;;27.20;;
5682;SDS011;2864;49.220;8.654;2023-02-24T06:32:43;68.13;;;26.13;;
5682;SDS011;2864;49.220;8.654;2023-02-24T06:35:09;67.20;;;26.70;;
5682;SDS011;2864;49.220;8.654;2023-02-24T06:37:36;75.07;;;29.17;;
5682;SDS011;2864;49.220;8.654;2023-02-24T06:40:03;60.90;;;26.70;;
5682;SDS011;2864;49.220;8.654;2023-02-24T06:42:39;74.87;;;29.10;;
5682;SDS011;2864;49.220;8.654;2023-02-24T06:45:06;66.63;;;26.83;;
5682;SDS011;2864;49.220;8.654;2023-02-24T06:47:32;81.47;;;28.97;;
5682;SDS011;2864;49.220;8.654;2023-02-24T06:49:58;75.63;;;28.60;;
5682;SDS011;2864;49.220;8.654;2023-02-24T06:52:24;68.07;;;27.90;;
5682;SDS011;2864;49.220;8.654;2023-02-24T06:54:50;66.50;;;27.73;;
5682;SDS011;2864;49.220;8.654;2023-02-24T06:57:16;71.47;;;27.93;;
5682;SDS011;2864;49.220;8.654;2023-02-24T06:59:42;66.67;;;27.50;;
5682;SDS011;2864;49.220;8.654;2023-02-24T07:02:09;69.80;;;27.33;;
5682;SDS011;2864;49.220;8.654;2023-02-24T07:04:36;72.43;;;27.00;;
5682;SDS011;2864;49.220;8.654;2023-02-24T07:07:07;64.40;;;25.97;;
5682;SDS011;2864;49.220;8.654;2023-02-24T07:09:34;73.27;;;28.33;;
5682;SDS011;2864;49.220;8.654;2023-02-24T07:12:01;74.27;;;28.77;;
5682;SDS011;2864;49.220;8.654;2023-02-24T07:14:28;77.00;;;29.97;;
5682;SDS011;2864;49.220;8.654;2023-02-24T07:16:55;76.93;;;32.27;;
5682;SDS011;2864;49.220;8.654;2023-02-24T07:19:26;68.13;;;28.10;;
5682;SDS011;2864;49.220;8.654;2023-02-24T07:21:54;69.93;;;26.73;;
5682;SDS011;2864;49.220;8.654;2023-02-24T07:24:24;70.30;;;25.90;;
5682;SDS011;2864;49.220;8.654;2023-02-24T07:26:58;69.60;;;26.23;;
5682;SDS011;2864;49.220;8.654;2023-02-24T07:29:26;68.10;;;25.43;;
5682;SDS011;2864;49.220;8.654;2023-02-24T07:31:52;64.70;;;25.70;;
5682;SDS011;2864;49.220;8.654;2023-02-24T07:34:20;63.77;;;25.37;;
5682;SDS011;2864;49.220;8.654;2023-02-24T07:36:48;64.23;;;25.20;;
5682;SDS011;2864;49.220;8.654;2023-02-24T07:39:15;59.47;;;24.00;;
5682;SDS011;2864;49.220;8.654;2023-02-24T07:41:42;53.80;;;24.50;;
5682;SDS011;2864;49.220;8.654;2023-02-24T07:44:09;53.63;;;22.93;;
5682;SDS011;2864;49.220;8.654;2023-02-24T07:46:35;65.17;;;24.43;;
5682;SDS011;2864;49.220;8.654;2023-02-24T07:49:02;62.07;;;24.83;;
5682;SDS011;2864;49.220;8.654;2023-02-24T07:51:29;67.30;;;25.60;;
5682;SDS011;2864;49.220;8.654;2023-02-24T07:53:56;55.27;;;24.60;;
5682;SDS011;2864;49.220;8.654;2023-02-24T07:56:23;52.07;;;23.10;;
5682;SDS011;2864;49.220;8.654;2023-02-24T07:58:51;59.73;;;24.40;;
5682;SDS011;2864;49.220;8.654;2023-02-24T08:01:27;56.77;;;23.97;;
5682;SDS011;2864;49.220;8.654;2023-02-24T08:03:57;54.90;;;21.93;;
5682;SDS011;2864;49.220;8.654;2023-02-24T08:06:30;57.17;;;24.60;;
5682;SDS011;2864;49.220;8.654;2023-02-24T08:09:13;54.13;;;23.33;;
5682;SDS011;2864;49.220;8.654;2023-02-24T08:12:06;54.50;;;23.73;;
5682;SDS011;2864;49.220;8.654;2023-02-24T08:14:32;59.43;;;24.47;;
5682;SDS011;2864;49.220;8.654;2023-02-24T08:16:59;51.50;;;21.97;;
5682;SDS011;2864;49.220;8.654;2023-02-24T08:19:26;49.50;;;21.87;;
5682;SDS011;2864;49.220;8.654;2023-02-24T08:21:57;49.40;;;21.90;;
5682;SDS011;2864;49.220;8.654;2023-02-24T08:24:43;50.50;;;21.33;;
5682;SDS011;2864;49.220;8.654;2023-02-24T08:27:09;48.80;;;21.93;;
5682;SDS011;2864;49.220;8.654;2023-02-24T08:29:37;48.37;;;21.70;;
5682;SDS011;2864;49.220;8.654;2023-02-24T08:32:21;51.30;;;22.27;;
5682;SDS011;2864;49.220;8.654;2023-02-24T08:34:48;46.70;;;22.03;;
5682;SDS011;2864;49.220;8.654;2023-02-24T08:37:14;45.47;;;22.03;;
5682;SDS011;2864;49.220;8.654;2023-02-24T08:39:41;49.90;;;21.87;;
5682;SDS011;2864;49.220;8.654;2023-02-24T08:42:09;47.57;;;21.80;;
5682;SDS011;2864;49.220;8.654;2023-02-24T08:44:38;46.37;;;20.47;;
5682;SDS011;2864;49.220;8.654;2023-02-24T08:47:04;39.27;;;19.47;;
5682;SDS011;2864;49.220;8.654;2023-02-24T08:49:31;49.40;;;21.23;;
5682;SDS011;2864;49.220;8.654;2023-02-24T08:51:58;45.47;;;20.37;;
5682;SDS011;2864;49.220;8.654;2023-02-24T08:54:31;42.40;;;19.53;;
5682;SDS011;2864;49.220;8.654;2023-02-24T08:56:58;46.33;;;20.50;;
5682;SDS011;2864;49.220;8.654;2023-02-24T08:59:33;44.20;;;20.13;;
5682;SDS011;2864;49.220;8.654;2023-02-24T09:02:14;46.23;;;20.33;;
5682;SDS011;2864;49.220;8.654;2023-02-24T09:04:56;43.70;;;20.40;;
5682;SDS011;2864;49.220;8.654;2023-02-24T09:07:30;43.53;;;20.23;;
5682;SDS011;2864;49.220;8.654;2023-02-24T09:10:00;50.40;;;21.70;;
5682;SDS011;2864;49.220;8.654;2023-02-24T09:12:26;47.10;;;20.00;;
5682;SDS011;2864;49.220;8.654;2023-02-24T09:14:58;46.60;;;22.07;;
5682;SDS011;2864;49.220;8.654;2023-02-24T09:17:31;49.57;;;20.07;;
5682;SDS011;2864;49.220;8.654;2023-02-24T09:22:55;42.00;;;19.73;;
5682;SDS011;2864;49.220;8.654;2023-02-24T09:25:22;45.90;;;19.73;;
5682;SDS011;2864;49.220;8.654;2023-02-24T09:27:53;42.00;;;20.70;;
5682;SDS011;2864;49.220;8.654;2023-02-24T09:30:22;44.23;;;20.83;;
5682;SDS011;2864;49.220;8.654;2023-02-24T09:35:30;45.33;;;20.03;;
5682;SDS011;2864;49.220;8.654;2023-02-24T09:38:00;61.03;;;27.30;;
5682;SDS011;2864;49.220;8.654;2023-02-24T09:40:30;45.33;;;21.33;;
5682;SDS011;2864;49.220;8.654;2023-02-24T09:43:12;43.73;;;20.80;;
5682;SDS011;2864;49.220;8.654;2023-02-24T09:45:45;44.93;;;21.33;;
5682;SDS011;2864;49.220;8.654;2023-02-24T09:48:20;47.33;;;21.87;;
5682;SDS011;2864;49.220;8.654;2023-02-24T09:51:09;49.53;;;20.93;;
5682;SDS011;2864;49.220;8.654;2023-02-24T09:53:39;43.03;;;20.33;;
5682;SDS011;2864;49.220;8.654;2023-02-24T09:56:17;46.97;;;20.53;;
5682;SDS011;2864;49.220;8.654;2023-02-24T09:58:51;44.77;;;20.70;;
5682;SDS011;2864;49.220;8.654;2023-02-24T10:01:34;43.87;;;20.03;;
5682;SDS011;2864;49.220;8.654;2023-02-24T10:06:45;47.10;;;20.60;;
5682;SDS011;2864;49.220;8.654;2023-02-24T10:11:46;41.80;;;20.27;;
5682;SDS011;2864;49.220;8.654;2023-02-24T10:14:20;42.23;;;21.13;;
5682;SDS011;2864;49.220;8.654;2023-02-24T10:17:15;38.90;;;20.10;;
5682;SDS011;2864;49.220;8.654;2023-02-24T10:19:48;42.43;;;19.50;;
5682;SDS011;2864;49.220;8.654;2023-02-24T10:22:33;41.20;;;20.47;;
5682;SDS011;2864;49.220;8.654;2023-02-24T10:30:10;39.30;;;21.03;;
5682;SDS011;2864;49.220;8.654;2023-02-24T10:32:47;48.07;;;21.97;;
5682;SDS011;2864;49.220;8.654;2023-02-24T10:35:22;39.70;;;20.70;;
5682;SDS011;2864;49.220;8.654;2023-02-24T10:37:49;42.43;;;20.93;;
5682;SDS011;2864;49.220;8.654;2023-02-24T10:40:16;42.73;;;20.63;;
5682;SDS011;2864;49.220;8.654;2023-02-24T10:43:05;40.40;;;20.17;;
5682;SDS011;2864;49.220;8.654;2023-02-24T10:45:37;45.50;;;20.40;;
5682;SDS011;2864;49.220;8.654;2023-02-24T10:48:09;35.47;;;18.57;;
5682;SDS011;2864;49.220;8.654;2023-02-24T10:50:49;40.30;;;19.10;;
5682;SDS011;2864;49.220;8.654;2023-02-24T10:53:18;40.73;;;19.13;;
5682;SDS011;2864;49.220;8.654;2023-02-24T10:56:10;45.67;;;20.33;;
5682;SDS011;2864;49.220;8.654;2023-02-24T10:59:09;40.87;;;19.63;;
5682;SDS011;2864;49.220;8.654;2023-02-24T11:01:53;41.93;;;18.33;;
5682;SDS011;2864;49.220;8.654;2023-02-24T11:04:35;33.70;;;18.37;;
5682;SDS011;2864;49.220;8.654;2023-02-24T11:07:21;30.47;;;16.20;;
5682;SDS011;2864;49.220;8.654;2023-02-24T11:10:02;32.90;;;17.87;;
5682;SDS011;2864;49.220;8.654;2023-02-24T11:12:46;36.70;;;16.97;;
5682;SDS011;2864;49.220;8.654;2023-02-24T11:15:32;33.43;;;17.50;;
5682;SDS011;2864;49.220;8.654;2023-02-24T11:18:20;34.43;;;16.23;;
5682;SDS011;2864;49.220;8.654;2023-02-24T11:20:51;28.57;;;15.40;;
5682;SDS011;2864;49.220;8.654;2023-02-24T11:24:03;34.70;;;16.93;;
5682;SDS011;2864;49.220;8.654;2023-02-24T11:28:49;33.43;;;16.77;;
5682;SDS011;2864;49.220;8.654;2023-02-24T11:41:27;29.07;;;16.57;;
5682;SDS011;2864;49.220;8.654;2023-02-24T11:44:32;26.20;;;15.13;;
5682;SDS011;2864;49.220;8.654;2023-02-24T11:47:01;27.13;;;14.97;;
5682;SDS011;2864;49.220;8.654;2023-02-24T11:51:57;28.20;;;15.63;;
5682;SDS011;2864;49.220;8.654;2023-02-24T11:54:24;28.70;;;15.43;;
5682;SDS011;2864;49.220;8.654;2023-02-24T11:56:55;31.93;;;16.27;;
5682;SDS011;2864;49.220;8.654;2023-02-24T11:59:38;27.43;;;15.90;;
5682;SDS011;2864;49.220;8.654;2023-02-24T12:04:37;29.10;;;16.00;;
5682;SDS011;2864;49.220;8.654;2023-02-24T12:09:35;29.03;;;16.37;;
5682;SDS011;2864;49.220;8.654;2023-02-24T12:12:14;26.80;;;15.67;;
5682;SDS011;2864;49.220;8.654;2023-02-24T12:14:58;29.20;;;16.33;;
5682;SDS011;2864;49.220;8.654;2023-02-24T12:17:32;23.10;;;14.10;;
5682;SDS011;2864;49.220;8.654;2023-02-24T12:22:28;26.30;;;14.70;;
5682;SDS011;2864;49.220;8.654;2023-02-24T12:24:55;26.43;;;14.33;;
5682;SDS011;2864;49.220;8.654;2023-02-24T12:27:36;30.70;;;15.13;;
5682;SDS011;2864;49.220;8.654;2023-02-24T12:38:25;31.03;;;15.93;;
5682;SDS011;2864;49.220;8.654;2023-02-24T12:43:52;27.30;;;15.70;;
5682;SDS011;2864;49.220;8.654;2023-02-24T12:56:37;26.10;;;14.33;;
5682;SDS011;2864;49.220;8.654;2023-02-24T12:59:06;24.20;;;13.70;;
5682;SDS011;2864;49.220;8.654;2023-02-24T13:12:42;19.87;;;12.13;;
5682;SDS011;2864;49.220;8.654;2023-02-24T13:15:21;22.87;;;13.13;;
5682;SDS011;2864;49.220;8.654;2023-02-24T13:17:49;23.20;;;12.83;;
5682;SDS011;2864;49.220;8.654;2023-02-24T13:20:36;25.70;;;13.93;;
5682;SDS011;2864;49.220;8.654;2023-02-24T13:23:14;26.17;;;13.77;;
5682;SDS011;2864;49.220;8.654;2023-02-24T13:25:48;21.10;;;12.87;;
5682;SDS011;2864;49.220;8.654;2023-02-24T13:28:23;23.87;;;13.53;;
5682;SDS011;2864;49.220;8.654;2023-02-24T13:30:59;19.60;;;12.90;;
5682;SDS011;2864;49.220;8.654;2023-02-24T13:33:31;21.13;;;11.30;;
5682;SDS011;2864;49.220;8.654;2023-02-24T13:43:53;19.87;;;10.40;;
5682;SDS011;2864;49.220;8.654;2023-02-24T13:46:30;23.43;;;12.27;;
5682;SDS011;2864;49.220;8.654;2023-02-24T13:48:59;22.87;;;12.90;;
5682;SDS011;2864;49.220;8.654;2023-02-24T14:02:48;30.80;;;16.40;;
5682;SDS011;2864;49.220;8.654;2023-02-24T14:05:21;28.37;;;13.23;;
5682;SDS011;2864;49.220;8.654;2023-02-24T14:07:48;38.07;;;17.80;;
5682;SDS011;2864;49.220;8.654;2023-02-24T14:10:18;22.97;;;12.67;;
5682;SDS011;2864;49.220;8.654;2023-02-24T14:12:45;31.13;;;17.00;;
5682;SDS011;2864;49.220;8.654;2023-02-24T14:15:14;32.80;;;17.57;;
5682;SDS011;2864;49.220;8.654;2023-02-24T14:17:43;31.57;;;18.27;;
5682;SDS011;2864;49.220;8.654;2023-02-24T14:20:19;33.17;;;16.80;;
5682;SDS011;2864;49.220;8.654;2023-02-24T14:22:49;28.37;;;15.60;;
5682;SDS011;2864;49.220;8.654;2023-02-24T14:25:17;31.43;;;16.90;;
5682;SDS011;2864;49.220;8.654;2023-02-24T14:27:47;27.80;;;15.23;;
5682;SDS011;2864;49.220;8.654;2023-02-24T14:30:23;28.67;;;14.53;;
5682;SDS011;2864;49.220;8.654;2023-02-24T14:32:59;23.13;;;13.63;;
5682;SDS011;2864;49.220;8.654;2023-02-24T14:37:52;24.13;;;13.40;;
5682;SDS011;2864;49.220;8.654;2023-02-24T14:40:18;24.57;;;13.00;;
5682;SDS011;2864;49.220;8.654;2023-02-24T14:42:47;26.80;;;14.23;;
5682;SDS011;2864;49.220;8.654;2023-02-24T14:45:17;25.27;;;14.07;;
5682;SDS011;2864;49.220;8.654;2023-02-24T14:47:44;24.30;;;12.70;;
5682;SDS011;2864;49.220;8.654;2023-02-24T14:50:14;24.47;;;12.47;;
5682;SDS011;2864;49.220;8.654;2023-02-24T14:55:12;22.77;;;12.33;;
5682;SDS011;2864;49.220;8.654;2023-02-24T14:57:43;20.33;;;12.00;;
5682;SDS011;2864;49.220;8.654;2023-02-24T15:05:52;23.23;;;11.67;;
5682;SDS011;2864;49.220;8.654;2023-02-24T15:08:38;21.37;;;12.30;;
5682;SDS011;2864;49.220;8.654;2023-02-24T15:13:49;19.60;;;11.43;;
5682;SDS011;2864;49.220;8.654;2023-02-24T15:16:27;21.30;;;12.43;;
5682;SDS011;2864;49.220;8.654;2023-02-24T15:18:58;19.80;;;11.90;;
5682;SDS011;2864;49.220;8.654;2023-02-24T15:21:31;21.43;;;11.80;;
5682;SDS011;2864;49.220;8.654;2023-02-24T15:24:03;21.03;;;11.43;;
5682;SDS011;2864;49.220;8.654;2023-02-24T15:26:31;21.90;;;12.67;;
5682;SDS011;2864;49.220;8.654;2023-02-24T15:28:58;20.87;;;12.43;;
5682;SDS011;2864;49.220;8.654;2023-02-24T15:31:25;23.00;;;12.93;;
5682;SDS011;2864;49.220;8.654;2023-02-24T15:34:01;21.77;;;12.57;;
5682;SDS011;2864;49.220;8.654;2023-02-24T15:36:31;20.50;;;12.83;;
5682;SDS011;2864;49.220;8.654;2023-02-24T15:39:03;20.60;;;12.53;;
5682;SDS011;2864;49.220;8.654;2023-02-24T15:41:39;21.27;;;12.73;;
5682;SDS011;2864;49.220;8.654;2023-02-24T15:44:05;20.63;;;12.27;;
5682;SDS011;2864;49.220;8.654;2023-02-24T15:46:32;25.40;;;13.40;;
5682;SDS011;2864;49.220;8.654;2023-02-24T15:48:59;24.33;;;13.07;;
5682;SDS011;2864;49.220;8.654;2023-02-24T15:54:05;27.87;;;14.03;;
5682;SDS011;2864;49.220;8.654;2023-02-24T15:56:32;23.03;;;13.50;;
5682;SDS011;2864;49.220;8.654;2023-02-24T15:58:59;21.83;;;13.03;;
5682;SDS011;2864;49.220;8.654;2023-02-24T16:01:30;22.57;;;12.97;;
5682;SDS011;2864;49.220;8.654;2023-02-24T16:03:57;26.43;;;13.80;;
5682;SDS011;2864;49.220;8.654;2023-02-24T16:06:23;27.90;;;14.70;;
5682;SDS011;2864;49.220;8.654;2023-02-24T16:08:50;26.33;;;14.10;;
5682;SDS011;2864;49.220;8.654;2023-02-24T16:11:18;27.17;;;14.47;;
5682;SDS011;2864;49.220;8.654;2023-02-24T16:13:56;22.83;;;14.23;;
5682;SDS011;2864;49.220;8.654;2023-02-24T16:16:22;27.60;;;14.83;;
5682;SDS011;2864;49.220;8.654;2023-02-24T16:18:50;22.60;;;13.50;;
5682;SDS011;2864;49.220;8.654;2023-02-24T16:21:16;25.10;;;13.70;;
5682;SDS011;2864;49.220;8.654;2023-02-24T16:23:42;23.73;;;13.60;;
5682;SDS011;2864;49.220;8.654;2023-02-24T16:26:13;29.57;;;13.50;;
5682;SDS011;2864;49.220;8.654;2023-02-24T16:28:40;25.00;;;14.40;;
5682;SDS011;2864;49.220;8.654;2023-02-24T16:31:06;26.20;;;12.87;;
5682;SDS011;2864;49.220;8.654;2023-02-24T16:33:32;27.33;;;13.57;;
5682;SDS011;2864;49.220;8.654;2023-02-24T16:35:59;22.00;;;13.07;;
5682;SDS011;2864;49.220;8.654;2023-02-24T16:38:25;25.97;;;13.77;;
5682;SDS011;2864;49.220;8.654;2023-02-24T16:40:51;25.37;;;13.77;;
5682;SDS011;2864;49.220;8.654;2023-02-24T16:43:18;30.23;;;14.30;;
5682;SDS011;2864;49.220;8.654;2023-02-24T16:45:44;23.50;;;13.20;;
5682;SDS011;2864;49.220;8.654;2023-02-24T16:48:24;27.03;;;12.90;;
5682;SDS011;2864;49.220;8.654;2023-02-24T16:50:51;24.60;;;13.63;;
5682;SDS011;2864;49.220;8.654;2023-02-24T16:53:18;30.37;;;14.83;;
5682;SDS011;2864;49.220;8.654;2023-02-24T16:55:46;26.37;;;14.27;;
5682;SDS011;2864;49.220;8.654;2023-02-24T16:58:13;27.63;;;13.97;;
5682;SDS011;2864;49.220;8.654;2023-02-24T17:00:39;25.87;;;14.20;;
5682;SDS011;2864;49.220;8.654;2023-02-24T17:03:26;27.57;;;14.77;;
5682;SDS011;2864;49.220;8.654;2023-02-24T17:06:02;22.93;;;13.93;;
5682;SDS011;2864;49.220;8.654;2023-02-24T17:08:28;21.87;;;13.67;;
5682;SDS011;2864;49.220;8.654;2023-02-24T17:10:54;24.30;;;14.00;;
5682;SDS011;2864;49.220;8.654;2023-02-24T17:13:21;29.80;;;14.77;;
5682;SDS011;2864;49.220;8.654;2023-02-24T17:15:48;26.00;;;13.67;;
5682;SDS011;2864;49.220;8.654;2023-02-24T17:18:19;25.67;;;14.00;;
5682;SDS011;2864;49.220;8.654;2023-02-24T17:20:45;29.60;;;15.40;;
5682;SDS011;2864;49.220;8.654;2023-02-24T17:23:11;26.10;;;13.73;;
5682;SDS011;2864;49.220;8.654;2023-02-24T17:25:37;26.03;;;13.93;;
5682;SDS011;2864;49.220;8.654;2023-02-24T17:28:03;24.53;;;14.50;;
5682;SDS011;2864;49.220;8.654;2023-02-24T17:30:30;24.27;;;13.93;;